sensor_id;sensor_type;location;lat;lon;timestamp;P1;durP1;ratioP1;P2;durP2;ratioP2
22965;SDS011;11649;48.090;9.754;2023-01-23T00:01:19;21.95;;;14.00;;
22965;SDS011;11649;48.090;9.754;2023-01-23T00:03:50;22.63;;;14.75;;
22965;SDS011;11649;48.090;9.754;2023-01-23T00:06:17;21.50;;;13.75;;
22965;SDS011;11649;48.090;9.754;2023-01-23T00:08:45;21.17;;;14.38;;
22965;SDS011;11649;48.090;9.754;2023-01-23T00:11:16;24.20;;;14.63;;
22965;SDS011;11649;48.090;9.754;2023-01-23T00:13:45;23.52;;;14.93;;
22965;SDS011;11649;48.090;9.754;2023-01-23T00:16:16;21.77;;;15.05;;
22965;SDS011;11649;48.090;9.754;2023-01-23T00:18:49;22.95;;;14.82;;
22965;SDS011;11649;48.090;9.754;2023-01-23T00:21:18;23.50;;;14.77;;
22965;SDS011;11649;48.090;9.754;2023-01-23T00:23:47;23.20;;;14.95;;
22965;SDS011;11649;48.090;9.754;2023-01-23T00:26:17;23.38;;;15.52;;
22965;SDS011;11649;48.090;9.754;2023-01-23T00:28:49;24.25;;;15.82;;
22965;SDS011;11649;48.090;9.754;2023-01-23T00:31:18;23.30;;;15.07;;
22965;SDS011;11649;48.090;9.754;2023-01-23T00:33:57;23.23;;;15.43;;
22965;SDS011;11649;48.090;9.754;2023-01-23T00:36:30;25.58;;;17.10;;
22965;SDS011;11649;48.090;9.754;2023-01-23T00:39:00;26.65;;;16.25;;
22965;SDS011;11649;48.090;9.754;2023-01-23T00:41:28;26.75;;;16.80;;
22965;SDS011;11649;48.090;9.754;2023-01-23T00:43:55;26.83;;;18.15;;
22965;SDS011;11649;48.090;9.754;2023-01-23T00:46:22;25.10;;;16.60;;
22965;SDS011;11649;48.090;9.754;2023-01-23T00:48:49;26.10;;;17.08;;
22965;SDS011;11649;48.090;9.754;2023-01-23T00:51:17;26.65;;;16.50;;
22965;SDS011;11649;48.090;9.754;2023-01-23T00:53:44;27.35;;;16.98;;
22965;SDS011;11649;48.090;9.754;2023-01-23T00:56:10;26.95;;;17.38;;
22965;SDS011;11649;48.090;9.754;2023-01-23T00:58:37;26.83;;;16.33;;
22965;SDS011;11649;48.090;9.754;2023-01-23T01:01:05;25.80;;;16.58;;
22965;SDS011;11649;48.090;9.754;2023-01-23T01:03:33;27.77;;;17.83;;
22965;SDS011;11649;48.090;9.754;2023-01-23T01:06:00;24.98;;;16.30;;
22965;SDS011;11649;48.090;9.754;2023-01-23T01:08:28;26.63;;;17.00;;
22965;SDS011;11649;48.090;9.754;2023-01-23T01:10:55;26.13;;;16.75;;
22965;SDS011;11649;48.090;9.754;2023-01-23T01:13:21;24.48;;;16.02;;
22965;SDS011;11649;48.090;9.754;2023-01-23T01:15:49;26.33;;;17.00;;
22965;SDS011;11649;48.090;9.754;2023-01-23T01:18:17;26.10;;;17.05;;
22965;SDS011;11649;48.090;9.754;2023-01-23T01:20:44;30.10;;;17.55;;
22965;SDS011;11649;48.090;9.754;2023-01-23T01:23:11;27.33;;;17.65;;
22965;SDS011;11649;48.090;9.754;2023-01-23T01:25:38;29.75;;;18.33;;
22965;SDS011;11649;48.090;9.754;2023-01-23T01:28:05;26.42;;;17.00;;
22965;SDS011;11649;48.090;9.754;2023-01-23T01:30:32;27.23;;;17.38;;
22965;SDS011;11649;48.090;9.754;2023-01-23T01:32:59;25.88;;;16.60;;
22965;SDS011;11649;48.090;9.754;2023-01-23T01:35:26;28.08;;;17.58;;
22965;SDS011;11649;48.090;9.754;2023-01-23T01:37:53;27.88;;;17.45;;
22965;SDS011;11649;48.090;9.754;2023-01-23T01:40:21;28.20;;;17.52;;
22965;SDS011;11649;48.090;9.754;2023-01-23T01:51:16;28.85;;;17.48;;
22965;SDS011;11649;48.090;9.754;2023-01-23T01:54:10;26.40;;;16.52;;
22965;SDS011;11649;48.090;9.754;2023-01-23T01:57:02;26.95;;;17.27;;
22965;SDS011;11649;48.090;9.754;2023-01-23T01:59:34;29.23;;;17.90;;
22965;SDS011;11649;48.090;9.754;2023-01-23T02:02:12;28.90;;;17.05;;
22965;SDS011;11649;48.090;9.754;2023-01-23T02:04:44;27.75;;;17.17;;
22965;SDS011;11649;48.090;9.754;2023-01-23T02:07:17;27.77;;;16.90;;
22965;SDS011;11649;48.090;9.754;2023-01-23T02:09:51;29.08;;;17.95;;
22965;SDS011;11649;48.090;9.754;2023-01-23T02:12:18;26.75;;;16.75;;
22965;SDS011;11649;48.090;9.754;2023-01-23T02:14:44;29.13;;;17.30;;
22965;SDS011;11649;48.090;9.754;2023-01-23T02:17:11;29.55;;;16.92;;
22965;SDS011;11649;48.090;9.754;2023-01-23T02:19:41;29.23;;;18.15;;
22965;SDS011;11649;48.090;9.754;2023-01-23T02:22:24;27.98;;;17.80;;
22965;SDS011;11649;48.090;9.754;2023-01-23T02:27:39;29.40;;;18.63;;
22965;SDS011;11649;48.090;9.754;2023-01-23T02:30:06;28.63;;;18.48;;
22965;SDS011;11649;48.090;9.754;2023-01-23T02:32:34;27.73;;;17.70;;
22965;SDS011;11649;48.090;9.754;2023-01-23T02:35:04;26.95;;;16.88;;
22965;SDS011;11649;48.090;9.754;2023-01-23T02:37:36;29.10;;;17.40;;
22965;SDS011;11649;48.090;9.754;2023-01-23T02:40:08;27.13;;;17.40;;
22965;SDS011;11649;48.090;9.754;2023-01-23T02:42:35;29.73;;;18.75;;
22965;SDS011;11649;48.090;9.754;2023-01-23T02:45:05;26.92;;;17.10;;
22965;SDS011;11649;48.090;9.754;2023-01-23T02:47:32;27.05;;;17.13;;
22965;SDS011;11649;48.090;9.754;2023-01-23T02:49:59;28.88;;;17.80;;
22965;SDS011;11649;48.090;9.754;2023-01-23T02:52:26;27.42;;;16.88;;
22965;SDS011;11649;48.090;9.754;2023-01-23T02:54:53;28.10;;;17.40;;
22965;SDS011;11649;48.090;9.754;2023-01-23T02:57:20;27.52;;;17.67;;
22965;SDS011;11649;48.090;9.754;2023-01-23T02:59:47;29.92;;;18.35;;
22965;SDS011;11649;48.090;9.754;2023-01-23T03:02:32;27.88;;;17.05;;
22965;SDS011;11649;48.090;9.754;2023-01-23T03:04:59;27.52;;;17.40;;
22965;SDS011;11649;48.090;9.754;2023-01-23T03:07:26;27.70;;;17.17;;
22965;SDS011;11649;48.090;9.754;2023-01-23T03:09:52;30.15;;;18.15;;
22965;SDS011;11649;48.090;9.754;2023-01-23T03:12:19;28.30;;;17.50;;
22965;SDS011;11649;48.090;9.754;2023-01-23T03:14:46;31.58;;;18.13;;
22965;SDS011;11649;48.090;9.754;2023-01-23T03:17:13;28.02;;;17.05;;
22965;SDS011;11649;48.090;9.754;2023-01-23T03:19:41;27.30;;;16.58;;
22965;SDS011;11649;48.090;9.754;2023-01-23T03:22:08;29.88;;;18.17;;
22965;SDS011;11649;48.090;9.754;2023-01-23T03:24:34;29.52;;;18.50;;
22965;SDS011;11649;48.090;9.754;2023-01-23T03:27:01;31.27;;;17.77;;
22965;SDS011;11649;48.090;9.754;2023-01-23T03:29:28;27.65;;;17.85;;
22965;SDS011;11649;48.090;9.754;2023-01-23T03:32:13;29.92;;;18.02;;
22965;SDS011;11649;48.090;9.754;2023-01-23T03:34:41;31.15;;;19.83;;
22965;SDS011;11649;48.090;9.754;2023-01-23T03:37:09;30.52;;;19.23;;
22965;SDS011;11649;48.090;9.754;2023-01-23T03:39:37;33.08;;;18.52;;
22965;SDS011;11649;48.090;9.754;2023-01-23T03:42:22;30.35;;;18.15;;
22965;SDS011;11649;48.090;9.754;2023-01-23T03:44:50;31.10;;;18.63;;
22965;SDS011;11649;48.090;9.754;2023-01-23T03:47:17;28.20;;;18.05;;
22965;SDS011;11649;48.090;9.754;2023-01-23T03:49:45;28.10;;;17.65;;
22965;SDS011;11649;48.090;9.754;2023-01-23T03:52:12;28.88;;;17.92;;
22965;SDS011;11649;48.090;9.754;2023-01-23T03:54:39;28.23;;;17.50;;
22965;SDS011;11649;48.090;9.754;2023-01-23T03:57:07;31.08;;;18.05;;
22965;SDS011;11649;48.090;9.754;2023-01-23T03:59:34;26.88;;;16.90;;
22965;SDS011;11649;48.090;9.754;2023-01-23T04:02:01;29.23;;;17.40;;
22965;SDS011;11649;48.090;9.754;2023-01-23T04:04:30;27.75;;;17.52;;
22965;SDS011;11649;48.090;9.754;2023-01-23T04:06:58;28.55;;;16.63;;
22965;SDS011;11649;48.090;9.754;2023-01-23T04:09:26;27.48;;;16.98;;
22965;SDS011;11649;48.090;9.754;2023-01-23T04:11:53;28.95;;;16.92;;
22965;SDS011;11649;48.090;9.754;2023-01-23T04:14:21;29.50;;;17.60;;
22965;SDS011;11649;48.090;9.754;2023-01-23T04:16:50;26.27;;;16.35;;
22965;SDS011;11649;48.090;9.754;2023-01-23T04:19:17;27.88;;;16.52;;
22965;SDS011;11649;48.090;9.754;2023-01-23T04:21:48;28.60;;;17.30;;
22965;SDS011;11649;48.090;9.754;2023-01-23T04:24:15;25.80;;;16.13;;
22965;SDS011;11649;48.090;9.754;2023-01-23T04:26:42;27.83;;;18.23;;
22965;SDS011;11649;48.090;9.754;2023-01-23T04:29:10;27.95;;;16.92;;
22965;SDS011;11649;48.090;9.754;2023-01-23T04:31:39;30.33;;;18.20;;
22965;SDS011;11649;48.090;9.754;2023-01-23T04:34:06;28.48;;;17.00;;
22965;SDS011;11649;48.090;9.754;2023-01-23T04:36:34;28.88;;;17.52;;
22965;SDS011;11649;48.090;9.754;2023-01-23T04:39:00;27.65;;;16.88;;
22965;SDS011;11649;48.090;9.754;2023-01-23T04:41:29;28.13;;;17.65;;
22965;SDS011;11649;48.090;9.754;2023-01-23T04:43:56;31.90;;;18.13;;
22965;SDS011;11649;48.090;9.754;2023-01-23T04:46:43;28.27;;;16.75;;
22965;SDS011;11649;48.090;9.754;2023-01-23T04:49:09;27.27;;;17.23;;
22965;SDS011;11649;48.090;9.754;2023-01-23T04:51:36;30.63;;;17.83;;
22965;SDS011;11649;48.090;9.754;2023-01-23T04:54:03;29.63;;;18.15;;
22965;SDS011;11649;48.090;9.754;2023-01-23T04:56:30;32.40;;;18.55;;
22965;SDS011;11649;48.090;9.754;2023-01-23T04:58:56;30.90;;;18.73;;
22965;SDS011;11649;48.090;9.754;2023-01-23T05:01:23;32.55;;;18.13;;
22965;SDS011;11649;48.090;9.754;2023-01-23T05:03:50;29.35;;;17.65;;
22965;SDS011;11649;48.090;9.754;2023-01-23T05:06:18;31.33;;;18.33;;
22965;SDS011;11649;48.090;9.754;2023-01-23T05:08:44;32.35;;;17.73;;
22965;SDS011;11649;48.090;9.754;2023-01-23T05:11:11;29.25;;;17.67;;
22965;SDS011;11649;48.090;9.754;2023-01-23T05:13:38;32.30;;;17.05;;
22965;SDS011;11649;48.090;9.754;2023-01-23T05:16:05;32.00;;;17.83;;
22965;SDS011;11649;48.090;9.754;2023-01-23T05:18:32;29.83;;;17.48;;
22965;SDS011;11649;48.090;9.754;2023-01-23T05:20:58;28.67;;;17.42;;
22965;SDS011;11649;48.090;9.754;2023-01-23T05:23:25;30.45;;;18.15;;
22965;SDS011;11649;48.090;9.754;2023-01-23T05:25:52;30.60;;;17.85;;
22965;SDS011;11649;48.090;9.754;2023-01-23T05:28:19;32.22;;;18.38;;
22965;SDS011;11649;48.090;9.754;2023-01-23T05:30:45;35.00;;;19.23;;
22965;SDS011;11649;48.090;9.754;2023-01-23T05:33:12;27.98;;;17.30;;
22965;SDS011;11649;48.090;9.754;2023-01-23T05:35:39;29.52;;;17.77;;
22965;SDS011;11649;48.090;9.754;2023-01-23T05:38:06;31.20;;;18.38;;
22965;SDS011;11649;48.090;9.754;2023-01-23T05:40:33;29.58;;;18.27;;
22965;SDS011;11649;48.090;9.754;2023-01-23T05:42:59;29.45;;;17.55;;
22965;SDS011;11649;48.090;9.754;2023-01-23T05:45:26;29.63;;;17.40;;
22965;SDS011;11649;48.090;9.754;2023-01-23T05:47:53;31.30;;;18.02;;
22965;SDS011;11649;48.090;9.754;2023-01-23T05:50:21;30.65;;;18.33;;
22965;SDS011;11649;48.090;9.754;2023-01-23T05:52:49;34.65;;;18.63;;
22965;SDS011;11649;48.090;9.754;2023-01-23T05:55:16;31.33;;;18.15;;
22965;SDS011;11649;48.090;9.754;2023-01-23T05:57:43;30.60;;;18.23;;
22965;SDS011;11649;48.090;9.754;2023-01-23T06:00:10;31.80;;;18.23;;
22965;SDS011;11649;48.090;9.754;2023-01-23T06:02:39;28.42;;;17.42;;
22965;SDS011;11649;48.090;9.754;2023-01-23T06:05:06;29.48;;;16.75;;
22965;SDS011;11649;48.090;9.754;2023-01-23T06:07:33;28.13;;;17.35;;
22965;SDS011;11649;48.090;9.754;2023-01-23T06:10:00;30.35;;;17.70;;
22965;SDS011;11649;48.090;9.754;2023-01-23T06:12:26;28.85;;;16.98;;
22965;SDS011;11649;48.090;9.754;2023-01-23T06:14:53;31.77;;;18.35;;
22965;SDS011;11649;48.090;9.754;2023-01-23T06:17:20;29.50;;;17.73;;
22965;SDS011;11649;48.090;9.754;2023-01-23T06:19:47;31.55;;;17.30;;
22965;SDS011;11649;48.090;9.754;2023-01-23T06:22:15;30.75;;;17.17;;
22965;SDS011;11649;48.090;9.754;2023-01-23T06:24:42;26.70;;;15.77;;
22965;SDS011;11649;48.090;9.754;2023-01-23T06:27:08;28.67;;;16.73;;
22965;SDS011;11649;48.090;9.754;2023-01-23T06:29:36;30.02;;;17.05;;
22965;SDS011;11649;48.090;9.754;2023-01-23T06:32:03;30.02;;;17.77;;
22965;SDS011;11649;48.090;9.754;2023-01-23T06:34:30;32.60;;;18.35;;
22965;SDS011;11649;48.090;9.754;2023-01-23T06:36:56;34.03;;;19.05;;
22965;SDS011;11649;48.090;9.754;2023-01-23T06:39:23;33.13;;;18.90;;
22965;SDS011;11649;48.090;9.754;2023-01-23T06:41:50;32.25;;;19.17;;
22965;SDS011;11649;48.090;9.754;2023-01-23T06:44:16;33.25;;;18.35;;
22965;SDS011;11649;48.090;9.754;2023-01-23T06:46:44;33.85;;;18.58;;
22965;SDS011;11649;48.090;9.754;2023-01-23T06:49:11;35.75;;;20.20;;
22965;SDS011;11649;48.090;9.754;2023-01-23T06:51:38;34.33;;;18.42;;
22965;SDS011;11649;48.090;9.754;2023-01-23T06:54:05;31.90;;;18.05;;
22965;SDS011;11649;48.090;9.754;2023-01-23T06:56:31;35.63;;;18.95;;
22965;SDS011;11649;48.090;9.754;2023-01-23T06:58:58;30.17;;;17.95;;
22965;SDS011;11649;48.090;9.754;2023-01-23T07:01:25;31.80;;;17.83;;
22965;SDS011;11649;48.090;9.754;2023-01-23T07:03:52;29.52;;;17.40;;
22965;SDS011;11649;48.090;9.754;2023-01-23T07:06:18;32.22;;;17.95;;
22965;SDS011;11649;48.090;9.754;2023-01-23T07:08:45;37.30;;;18.13;;
22965;SDS011;11649;48.090;9.754;2023-01-23T07:11:12;29.83;;;18.00;;
22965;SDS011;11649;48.090;9.754;2023-01-23T07:13:39;31.73;;;18.45;;
22965;SDS011;11649;48.090;9.754;2023-01-23T07:16:06;30.85;;;18.52;;
22965;SDS011;11649;48.090;9.754;2023-01-23T07:18:33;30.92;;;17.83;;
22965;SDS011;11649;48.090;9.754;2023-01-23T07:21:03;28.25;;;17.15;;
22965;SDS011;11649;48.090;9.754;2023-01-23T07:23:31;32.13;;;17.23;;
22965;SDS011;11649;48.090;9.754;2023-01-23T07:26:00;28.10;;;17.23;;
22965;SDS011;11649;48.090;9.754;2023-01-23T07:28:29;30.77;;;17.35;;
22965;SDS011;11649;48.090;9.754;2023-01-23T07:30:56;26.25;;;16.77;;
22965;SDS011;11649;48.090;9.754;2023-01-23T07:33:24;29.75;;;17.50;;
22965;SDS011;11649;48.090;9.754;2023-01-23T07:35:51;27.75;;;16.70;;
22965;SDS011;11649;48.090;9.754;2023-01-23T07:38:18;31.15;;;17.98;;
22965;SDS011;11649;48.090;9.754;2023-01-23T07:40:45;29.10;;;16.80;;
22965;SDS011;11649;48.090;9.754;2023-01-23T07:43:11;28.27;;;15.48;;
22965;SDS011;11649;48.090;9.754;2023-01-23T07:45:41;27.02;;;16.35;;
22965;SDS011;11649;48.090;9.754;2023-01-23T07:48:08;29.15;;;16.38;;
22965;SDS011;11649;48.090;9.754;2023-01-23T07:50:35;27.13;;;16.13;;
22965;SDS011;11649;48.090;9.754;2023-01-23T07:53:04;26.17;;;15.75;;
22965;SDS011;11649;48.090;9.754;2023-01-23T07:55:31;26.77;;;15.35;;
22965;SDS011;11649;48.090;9.754;2023-01-23T07:57:58;28.70;;;16.55;;
22965;SDS011;11649;48.090;9.754;2023-01-23T08:00:25;25.40;;;15.25;;
22965;SDS011;11649;48.090;9.754;2023-01-23T08:02:55;24.58;;;15.30;;
22965;SDS011;11649;48.090;9.754;2023-01-23T08:05:22;32.50;;;16.08;;
22965;SDS011;11649;48.090;9.754;2023-01-23T08:07:49;27.67;;;15.75;;
22965;SDS011;11649;48.090;9.754;2023-01-23T08:10:32;25.95;;;15.35;;
22965;SDS011;11649;48.090;9.754;2023-01-23T08:12:59;23.65;;;14.13;;
22965;SDS011;11649;48.090;9.754;2023-01-23T08:15:26;26.13;;;14.75;;
22965;SDS011;11649;48.090;9.754;2023-01-23T08:17:52;23.35;;;14.98;;
22965;SDS011;11649;48.090;9.754;2023-01-23T08:20:19;23.70;;;14.13;;
22965;SDS011;11649;48.090;9.754;2023-01-23T08:22:48;24.60;;;15.05;;
22965;SDS011;11649;48.090;9.754;2023-01-23T08:25:14;22.05;;;13.57;;
22965;SDS011;11649;48.090;9.754;2023-01-23T08:27:41;22.92;;;14.00;;
22965;SDS011;11649;48.090;9.754;2023-01-23T08:30:08;23.92;;;14.15;;
22965;SDS011;11649;48.090;9.754;2023-01-23T08:32:35;21.58;;;13.07;;
22965;SDS011;11649;48.090;9.754;2023-01-23T08:35:02;23.77;;;13.95;;
22965;SDS011;11649;48.090;9.754;2023-01-23T08:37:30;21.52;;;13.80;;
22965;SDS011;11649;48.090;9.754;2023-01-23T08:39:58;21.60;;;13.00;;
22965;SDS011;11649;48.090;9.754;2023-01-23T08:42:25;21.13;;;13.63;;
22965;SDS011;11649;48.090;9.754;2023-01-23T08:44:52;21.65;;;13.68;;
22965;SDS011;11649;48.090;9.754;2023-01-23T08:47:19;19.48;;;12.77;;
22965;SDS011;11649;48.090;9.754;2023-01-23T08:49:45;23.17;;;13.45;;
22965;SDS011;11649;48.090;9.754;2023-01-23T08:52:12;22.15;;;13.95;;
22965;SDS011;11649;48.090;9.754;2023-01-23T08:54:39;21.42;;;13.30;;
22965;SDS011;11649;48.090;9.754;2023-01-23T08:57:05;24.23;;;14.02;;
22965;SDS011;11649;48.090;9.754;2023-01-23T08:59:32;22.15;;;13.45;;
22965;SDS011;11649;48.090;9.754;2023-01-23T09:01:59;22.50;;;13.70;;
22965;SDS011;11649;48.090;9.754;2023-01-23T09:04:26;21.75;;;13.93;;
22965;SDS011;11649;48.090;9.754;2023-01-23T09:06:53;28.48;;;15.18;;
22965;SDS011;11649;48.090;9.754;2023-01-23T09:09:19;23.40;;;14.48;;
22965;SDS011;11649;48.090;9.754;2023-01-23T09:11:46;23.00;;;14.77;;
22965;SDS011;11649;48.090;9.754;2023-01-23T09:14:13;22.95;;;14.05;;
22965;SDS011;11649;48.090;9.754;2023-01-23T09:16:39;21.92;;;14.00;;
22965;SDS011;11649;48.090;9.754;2023-01-23T09:19:07;26.30;;;15.13;;
22965;SDS011;11649;48.090;9.754;2023-01-23T09:21:35;23.17;;;14.48;;
22965;SDS011;11649;48.090;9.754;2023-01-23T09:24:02;22.92;;;14.30;;
22965;SDS011;11649;48.090;9.754;2023-01-23T09:26:29;23.20;;;14.43;;
22965;SDS011;11649;48.090;9.754;2023-01-23T09:28:56;24.55;;;15.80;;
22965;SDS011;11649;48.090;9.754;2023-01-23T09:31:22;25.13;;;15.05;;
22965;SDS011;11649;48.090;9.754;2023-01-23T09:33:49;26.58;;;15.93;;
22965;SDS011;11649;48.090;9.754;2023-01-23T09:36:16;25.40;;;15.85;;
22965;SDS011;11649;48.090;9.754;2023-01-23T09:38:43;26.40;;;15.98;;
22965;SDS011;11649;48.090;9.754;2023-01-23T09:41:15;29.40;;;16.40;;
22965;SDS011;11649;48.090;9.754;2023-01-23T09:49:27;28.85;;;16.40;;
22965;SDS011;11649;48.090;9.754;2023-01-23T09:52:22;29.58;;;17.27;;
22965;SDS011;11649;48.090;9.754;2023-01-23T09:57:38;28.27;;;16.55;;
22965;SDS011;11649;48.090;9.754;2023-01-23T10:00:14;27.45;;;16.98;;
22965;SDS011;11649;48.090;9.754;2023-01-23T10:02:50;27.95;;;16.40;;
22965;SDS011;11649;48.090;9.754;2023-01-23T10:05:20;25.63;;;15.70;;
22965;SDS011;11649;48.090;9.754;2023-01-23T10:08:01;27.15;;;16.70;;
22965;SDS011;11649;48.090;9.754;2023-01-23T10:10:45;26.05;;;15.25;;
22965;SDS011;11649;48.090;9.754;2023-01-23T10:13:30;26.65;;;16.02;;
22965;SDS011;11649;48.090;9.754;2023-01-23T10:16:19;26.98;;;16.42;;
22965;SDS011;11649;48.090;9.754;2023-01-23T10:19:15;24.77;;;15.30;;
22965;SDS011;11649;48.090;9.754;2023-01-23T10:22:10;25.50;;;16.05;;
22965;SDS011;11649;48.090;9.754;2023-01-23T10:24:54;26.83;;;16.05;;
22965;SDS011;11649;48.090;9.754;2023-01-23T10:27:31;26.85;;;16.33;;
22965;SDS011;11649;48.090;9.754;2023-01-23T10:32:30;25.35;;;16.17;;
22965;SDS011;11649;48.090;9.754;2023-01-23T10:35:06;24.58;;;15.52;;
22965;SDS011;11649;48.090;9.754;2023-01-23T10:37:44;25.73;;;16.15;;
22965;SDS011;11649;48.090;9.754;2023-01-23T10:42:40;21.70;;;14.15;;
22965;SDS011;11649;48.090;9.754;2023-01-23T10:45:17;27.75;;;16.45;;
22965;SDS011;11649;48.090;9.754;2023-01-23T10:47:47;25.50;;;15.45;;
22965;SDS011;11649;48.090;9.754;2023-01-23T10:50:36;20.02;;;12.23;;
22965;SDS011;11649;48.090;9.754;2023-01-23T10:53:06;23.73;;;14.82;;
22965;SDS011;11649;48.090;9.754;2023-01-23T10:55:43;24.58;;;15.43;;
22965;SDS011;11649;48.090;9.754;2023-01-23T10:58:20;24.92;;;15.70;;
22965;SDS011;11649;48.090;9.754;2023-01-23T11:00:54;19.52;;;11.73;;
22965;SDS011;11649;48.090;9.754;2023-01-23T11:06:01;24.25;;;15.20;;
22965;SDS011;11649;48.090;9.754;2023-01-23T11:08:35;23.40;;;14.98;;
22965;SDS011;11649;48.090;9.754;2023-01-23T11:11:16;25.08;;;15.82;;
22965;SDS011;11649;48.090;9.754;2023-01-23T11:13:44;24.63;;;15.18;;
22965;SDS011;11649;48.090;9.754;2023-01-23T11:16:17;22.92;;;14.60;;
22965;SDS011;11649;48.090;9.754;2023-01-23T11:18:52;25.80;;;16.00;;
22965;SDS011;11649;48.090;9.754;2023-01-23T11:21:21;18.80;;;11.18;;
22965;SDS011;11649;48.090;9.754;2023-01-23T11:27:14;25.88;;;14.85;;
22965;SDS011;11649;48.090;9.754;2023-01-23T11:32:46;26.67;;;15.45;;
22965;SDS011;11649;48.090;9.754;2023-01-23T11:35:26;26.25;;;15.70;;
22965;SDS011;11649;48.090;9.754;2023-01-23T11:38:09;24.48;;;14.65;;
22965;SDS011;11649;48.090;9.754;2023-01-23T11:40:45;25.35;;;14.48;;
22965;SDS011;11649;48.090;9.754;2023-01-23T11:43:13;25.33;;;14.75;;
22965;SDS011;11649;48.090;9.754;2023-01-23T11:48:35;23.95;;;15.38;;
22965;SDS011;11649;48.090;9.754;2023-01-23T11:51:15;16.02;;;10.63;;
22965;SDS011;11649;48.090;9.754;2023-01-23T11:56:51;23.55;;;14.05;;
22965;SDS011;11649;48.090;9.754;2023-01-23T12:11:13;20.38;;;12.73;;
22965;SDS011;11649;48.090;9.754;2023-01-23T12:13:45;23.98;;;14.15;;
22965;SDS011;11649;48.090;9.754;2023-01-23T12:17:01;23.17;;;14.07;;
22965;SDS011;11649;48.090;9.754;2023-01-23T12:22:58;24.65;;;14.80;;
22965;SDS011;11649;48.090;9.754;2023-01-23T12:25:23;27.38;;;14.98;;
22965;SDS011;11649;48.090;9.754;2023-01-23T12:28:53;24.88;;;15.55;;
22965;SDS011;11649;48.090;9.754;2023-01-23T12:31:17;24.77;;;15.38;;
22965;SDS011;11649;48.090;9.754;2023-01-23T12:40:11;25.75;;;15.27;;
22965;SDS011;11649;48.090;9.754;2023-01-23T12:45:31;28.05;;;16.42;;
22965;SDS011;11649;48.090;9.754;2023-01-23T12:48:04;26.20;;;15.52;;
22965;SDS011;11649;48.090;9.754;2023-01-23T12:50:49;26.45;;;15.55;;
22965;SDS011;11649;48.090;9.754;2023-01-23T12:53:21;23.38;;;15.30;;
22965;SDS011;11649;48.090;9.754;2023-01-23T12:55:57;27.85;;;16.08;;
22965;SDS011;11649;48.090;9.754;2023-01-23T12:58:31;27.02;;;16.35;;
22965;SDS011;11649;48.090;9.754;2023-01-23T13:01:08;27.25;;;16.30;;
22965;SDS011;11649;48.090;9.754;2023-01-23T13:11:54;26.80;;;16.02;;
22965;SDS011;11649;48.090;9.754;2023-01-23T13:17:37;29.77;;;17.35;;
22965;SDS011;11649;48.090;9.754;2023-01-23T13:23:25;28.65;;;16.52;;
22965;SDS011;11649;48.090;9.754;2023-01-23T13:33:51;27.88;;;16.95;;
22965;SDS011;11649;48.090;9.754;2023-01-23T13:36:29;27.10;;;16.42;;
22965;SDS011;11649;48.090;9.754;2023-01-23T13:39:01;29.48;;;16.48;;
22965;SDS011;11649;48.090;9.754;2023-01-23T13:41:29;28.15;;;16.65;;
22965;SDS011;11649;48.090;9.754;2023-01-23T13:49:53;26.27;;;16.10;;
22965;SDS011;11649;48.090;9.754;2023-01-23T13:52:50;26.77;;;15.43;;
22965;SDS011;11649;48.090;9.754;2023-01-23T13:55:51;26.38;;;15.55;;
22965;SDS011;11649;48.090;9.754;2023-01-23T13:58:52;30.30;;;16.02;;
22965;SDS011;11649;48.090;9.754;2023-01-23T14:01:36;30.80;;;16.83;;
22965;SDS011;11649;48.090;9.754;2023-01-23T14:04:48;26.85;;;15.55;;
22965;SDS011;11649;48.090;9.754;2023-01-23T14:07:59;28.98;;;16.88;;
22965;SDS011;11649;48.090;9.754;2023-01-23T14:10:46;25.92;;;15.85;;
22965;SDS011;11649;48.090;9.754;2023-01-23T14:13:28;27.48;;;16.10;;
22965;SDS011;11649;48.090;9.754;2023-01-23T14:16:10;26.75;;;16.05;;
22965;SDS011;11649;48.090;9.754;2023-01-23T14:21:35;27.05;;;15.30;;
22965;SDS011;11649;48.090;9.754;2023-01-23T14:24:26;28.60;;;16.33;;
22965;SDS011;11649;48.090;9.754;2023-01-23T14:27:00;28.90;;;16.67;;
22965;SDS011;11649;48.090;9.754;2023-01-23T14:29:33;31.15;;;15.85;;
22965;SDS011;11649;48.090;9.754;2023-01-23T14:32:01;27.75;;;16.63;;
22965;SDS011;11649;48.090;9.754;2023-01-23T14:34:28;28.92;;;16.52;;
22965;SDS011;11649;48.090;9.754;2023-01-23T14:37:04;28.75;;;16.58;;
22965;SDS011;11649;48.090;9.754;2023-01-23T14:39:35;27.70;;;16.25;;
22965;SDS011;11649;48.090;9.754;2023-01-23T14:42:04;26.85;;;16.80;;
22965;SDS011;11649;48.090;9.754;2023-01-23T14:44:42;29.58;;;16.67;;
22965;SDS011;11649;48.090;9.754;2023-01-23T14:47:15;27.20;;;16.30;;
22965;SDS011;11649;48.090;9.754;2023-01-23T14:50:09;22.38;;;12.68;;
22965;SDS011;11649;48.090;9.754;2023-01-23T14:52:41;27.05;;;15.63;;
22965;SDS011;11649;48.090;9.754;2023-01-23T14:55:19;27.40;;;16.13;;
22965;SDS011;11649;48.090;9.754;2023-01-23T14:57:55;29.23;;;16.92;;
22965;SDS011;11649;48.090;9.754;2023-01-23T15:00:25;27.38;;;16.83;;
22965;SDS011;11649;48.090;9.754;2023-01-23T15:02:53;31.30;;;17.58;;
22965;SDS011;11649;48.090;9.754;2023-01-23T15:05:24;30.33;;;17.77;;
22965;SDS011;11649;48.090;9.754;2023-01-23T15:08:04;30.02;;;16.85;;
22965;SDS011;11649;48.090;9.754;2023-01-23T15:10:46;30.30;;;17.10;;
22965;SDS011;11649;48.090;9.754;2023-01-23T15:13:21;29.45;;;17.35;;
22965;SDS011;11649;48.090;9.754;2023-01-23T15:15:57;30.05;;;17.42;;
22965;SDS011;11649;48.090;9.754;2023-01-23T15:18:27;30.90;;;17.58;;
22965;SDS011;11649;48.090;9.754;2023-01-23T15:20:57;33.25;;;17.90;;
22965;SDS011;11649;48.090;9.754;2023-01-23T15:23:29;29.65;;;18.02;;
22965;SDS011;11649;48.090;9.754;2023-01-23T15:31:22;30.60;;;17.73;;
22965;SDS011;11649;48.090;9.754;2023-01-23T15:39:38;29.77;;;17.17;;
22965;SDS011;11649;48.090;9.754;2023-01-23T15:44:38;28.23;;;16.95;;
22965;SDS011;11649;48.090;9.754;2023-01-23T15:47:06;27.83;;;16.42;;
22965;SDS011;11649;48.090;9.754;2023-01-23T15:49:34;29.25;;;16.02;;
22965;SDS011;11649;48.090;9.754;2023-01-23T15:52:14;29.40;;;17.23;;
22965;SDS011;11649;48.090;9.754;2023-01-23T15:54:50;25.80;;;15.77;;
22965;SDS011;11649;48.090;9.754;2023-01-23T15:57:19;29.55;;;16.48;;
22965;SDS011;11649;48.090;9.754;2023-01-23T15:59:46;30.17;;;16.88;;
22965;SDS011;11649;48.090;9.754;2023-01-23T16:02:14;25.80;;;15.52;;
22965;SDS011;11649;48.090;9.754;2023-01-23T16:05:05;26.98;;;15.88;;
22965;SDS011;11649;48.090;9.754;2023-01-23T16:07:39;25.52;;;15.82;;
22965;SDS011;11649;48.090;9.754;2023-01-23T16:10:16;25.42;;;15.20;;
22965;SDS011;11649;48.090;9.754;2023-01-23T16:12:48;25.52;;;15.68;;
22965;SDS011;11649;48.090;9.754;2023-01-23T16:15:21;27.20;;;15.73;;
22965;SDS011;11649;48.090;9.754;2023-01-23T16:17:49;24.80;;;15.45;;
22965;SDS011;11649;48.090;9.754;2023-01-23T16:20:20;26.50;;;16.15;;
22965;SDS011;11649;48.090;9.754;2023-01-23T16:22:49;26.08;;;16.42;;
22965;SDS011;11649;48.090;9.754;2023-01-23T16:25:21;23.83;;;15.00;;
22965;SDS011;11649;48.090;9.754;2023-01-23T16:28:12;26.17;;;15.50;;
22965;SDS011;11649;48.090;9.754;2023-01-23T16:30:41;25.70;;;15.27;;
22965;SDS011;11649;48.090;9.754;2023-01-23T16:33:08;23.40;;;14.18;;